08/04/05 - 09h:50mDenunciar

Dassault Mirage III RS

Mirage III RS "white" partindo para mais uma surtida de reconhecimento. Os cabides (também chamados pylons ou pilones) externos que geralmente carregam mísses Sidewinder ou Matra Magic encontram-se vazios e os internos transportam os tradicionais tanques alijáveis de 625 litros, adicionando em torno de 96 milhas náuticas (177 km) ao alcance original provido pelos tanques internos (900 milhas náuticas ou aproximadamente 1600 km).





METAR SBPB 081200Z 15005KT 9999 FEW020 BKN300 33/26 Q1010=





OBS.: segundo os prognósticos de chuva fornecidos pela Rede de Meteorologia da Aeronáutica, Parnaíba deverá ter um índice pluviométrico de até 5 mm nas próximas horas.

Comentários (0)

Fotos postadas a mais de 15 dias não podem receber comentários.